Language selection

My Weather Profile Weather Topics  | 

Southwest Coast: Past 24 Hour Conditions

 

Port aux Basques

08:30 AM NDT 23 June 2021
Disclaimer

This table is a summary of hourly weather conditions for the past 24 hours.
Please note that these observations might not always be representative of weather conditions over their associated marine area.

Date / Time
(NDT)
Wind(knots) Conditions Visibility(km) Pressure(kPa) Air tempC) Relative humidity(%) Dew pointC)
23 June 2021
8:30 ENE 16 N/A N/A 100.9 13 100 13
7:30 E 14 N/A N/A 100.9 13 100 13
6:30 ENE 12 gust 17 N/A N/A 100.9 13 100 13
5:30 E 13 gust 18 N/A N/A 100.9 13 100 13
4:30 E 13 gust 18 N/A N/A 100.9 13 100 13
3:30 E 15 gust 21 N/A N/A 100.9 13 100 13
2:30 ENE 12 gust 18 N/A N/A 100.9 13 100 13
1:30 E 11 N/A N/A 100.9 13 100 13
0:30 E 17 gust 22 N/A N/A 101.0 12 100 12
22 June 2021
23:30 E 13 N/A N/A 101.0 12 100 12
22:30 ENE 14 N/A N/A 101.1 13 100 13
21:30 ENE 15 N/A N/A 101.1 12 100 12
20:30 ENE 14 gust 19 N/A N/A 101.1 12 100 12
19:30 E 14 gust 21 N/A N/A 101.1 12 100 12
18:30 E 18 N/A N/A 101.1 12 100 12
17:30 E 16 gust 22 N/A N/A 101.1 12 100 12
16:30 E 17 gust 22 N/A N/A 101.1 12 100 12
15:30 E 16 gust 22 N/A N/A 101.1 12 100 12
14:30 ENE 16 gust 22 N/A N/A 101.1 13 100 13
13:30 E 17 N/A N/A 101.2 12 100 12
12:30 E 16 gust 21 N/A N/A 101.2 12 100 12
11:30 ENE 18 N/A N/A 101.2 12 100 12
10:30 E 15 N/A N/A 101.2 12 100 12
9:30 E 12 gust 17 N/A N/A 101.2 12 100 12
8:30 E 13 gust 18 N/A N/A 101.2 12 100 12

Zoom-in to make a selection

Map of Atlantic - Newfoundland marine weather areas Banquereau - 44139 East Chedabucto Bay - 44488 West Chedabucto Bay - 44489 Blanc-Sablon Airport Cap Whittle Chevery Natashquan Airport Heath Point Îles de la Madeleine Airport Miscou Island Eskasoni (First Nations) Grand Étang Ingonish Beach North Mountain St.Paul Island J.A. Douglas McCurdy Sydney Airport Charlottetown Airport East Point North Cape Argentia Bonavista Burgeo Cape Race Corner Brook Daniel's Harbour Englee Ferolle Point La Scie Port aux Basques Rocky Harbour Sagona Island St. Anthony Airport St. John's Int'l Airport St. Lawrence Stephenville Airport Twillingate Winterland Branch Hill Wreckhouse Grates Cove Pool's Island Marticot Island Long Pond Cartwright Airport Mary's Harbour
Legend:
buoy Buoy
land station Land Station

Atlantic - Newfoundland Area

Another Region

What we are doing

Date modified: